Etusivu
METAR-TAF:

METAR-TAF

Lentoasemat :

Angoon, Alaska, Yhdysvallat

Leveyspiiri: 57-30N, Pituuspiiri: 134-35W, korkeus merenpinnasta: 0 m

Tämänhetkinen sää

Tämä raportti tehtiin 59 minuuttia sitten, kello 02.32 UTC
Tuuli 5 kn idästä
Lämpötila 8°C
Kosteus 93%
Ilmanpaine 1004 hPa
Näkyvyys: 16.1 km
Muutamia pilviä 2200 ft:n korkeudessa
Hajonneita pilviä 3200 ft:n korkeudessa
Pilvistä 5000 ft:n korkeudessa
heikkoa sadetta

METAR: PAGN 270232Z AUTO 08005KT 10SM -RA FEW022 BKN032 OVC050 08/07 A2964 RMK AO2 P0006

Aika: 19:31 (03:31 UTC)


TAF: puuttuu

Säähavainnot ja -ennusteet yli 4000 lentoasemalta (METAR- ja TAF-raportit).

Käytössä olevat sääasemat on merkitty karttaan keltaisilla ja punaisilla pisteillä.

Aseta hiiri pisteen päälle nähdäksesi sääaseman nimen.

Klikkaa sitten nähdäksesi säähavainnot ja -ennusteet.

Kartan vaihtaminen: klikkaa mustalla rastilla varustettuja vihreitä pisteitä, niin voit zoomata sisään; viivalla varustettua vihreää pistettä, niin voit zoomata ulos tai vihreitä nuolia, niin pääset viereisille kartoille.


METAR-TAF: